Historique des mesures à Cassis (13260), France
Quotidien Résumé Fevrier 6, 2018 Unités:  US    Métrique   Métrique/US
« Précédent (Jour)
Suivant (Jour) »
Quotidien Hebdomadaire Mensuel Annuel Période au choix
  Maximum: Minimum: Moyenne:
Température: 32 °F 46.2 °F 49.6 °F
Point de rosée: 32 °F 40.1 °F 41.4 °F
Humidité: Humidity % 65 % 69 %
Vitesse du vent: WindSpeedKMH mph 0.0 mph 5.4 mph
Rafales: WindSpeedGustKMH mph - -
Vent:- - SE
Pression: 0 in 29.6 in -
Précipitations: 25.4 in    
Historical Graphs
 
 
Mesures pour : Fevrier 6, 2018
Heure Temperature Point de rosée Pression Vent Vitesse du vent Rafales Humidité Pluie (par heure) Conditions
32 °F 32 °F 0 in Calm     Humidity % 0 in SoftwareType W/m2
00:12 49.8 °F 40.8 °F 29.8 in Calm   7.2 mph 71 % 0 in open2300-1.11 W/m2
01:12 50.2 °F 41.2 °F 29.8 in SSE 6.1 mph 6.1 mph 71 % 0 in open2300-1.11 W/m2
02:12 50.2 °F 41.2 °F 29.7 in ESE 6.4 mph 6.4 mph 71 % 0 in open2300-1.11 W/m2
03:12 49.8 °F 41.5 °F 29.7 in ENE 10.1 mph 13.4 mph 73 % 0 in open2300-1.11 W/m2
04:12 49.6 °F 41.7 °F 29.7 in ESE 4.7 mph 4.7 mph 74 % 0 in open2300-1.11 W/m2
05:12 48.7 °F 42.1 °F 29.7 in Calm     78 % 12.7 in open2300-1.11 W/m2
06:12 48.6 °F 42.6 °F 29.7 in South 2.1 mph 4.3 mph 80 % 12.7 in open2300-1.11 W/m2
07:12 48.7 °F 42.4 °F 29.7 in Calm   8.2 mph 79 % 0 in open2300-1.11 W/m2
08:12 49.3 °F 42.1 °F 29.7 in Calm   8.7 mph 76 % 0 in open2300-1.11 W/m2
09:12 49.8 °F 41.7 °F 29.7 in East 5.0 mph 10.8 mph 74 % 0 in open2300-1.11 W/m2
10:12 51.3 °F 42.6 °F 29.7 in ESE 6.1 mph 7.9 mph 72 % 0 in open2300-1.11 W/m2
11:12 51.6 °F 42.3 °F 29.7 in ENE 7.9 mph 7.9 mph 70 % 0 in open2300-1.11 W/m2
12:12 51.3 °F 41.9 °F 29.7 in NNE 4.7 mph 5.0 mph 70 % 0 in open2300-1.11 W/m2
13:12 51.1 °F 42.4 °F 29.6 in East 2.1 mph 6.1 mph 72 % 0 in open2300-1.11 W/m2
14:12 52.9 °F 42.3 °F 29.6 in NE 4.0 mph 7.6 mph 67 % 0 in open2300-1.11 W/m2
15:12 53.1 °F 41.5 °F 29.6 in ESE 4.3 mph 12.6 mph 65 % 0 in open2300-1.11 W/m2
16:12 53.2 °F 41.7 °F 29.6 in ESE 3.5 mph 3.5 mph 65 % 0 in open2300-1.11 W/m2
17:12 52.2 °F 40.6 °F 29.6 in ESE 10.8 mph 10.8 mph 65 % 0 in open2300-1.11 W/m2
18:12 51.6 °F 41 °F 29.6 in Calm     67 % 0 in open2300-1.11 W/m2
19:12 51.4 °F 41.2 °F 29.6 in Calm     68 % 0 in open2300-1.11 W/m2
20:12 49.8 °F 41.7 °F 29.6 in WNW 6.4 mph 13.4 mph 74 % 0 in open2300-1.11 W/m2
21:12 48.9 °F 41.5 °F 29.6 in WNW 16.9 mph 20.1 mph 76 % 0 in open2300-1.11 W/m2
22:12 48 °F 41.7 °F 29.6 in West 10.1 mph 20.9 mph 79 % 0 in open2300-1.11 W/m2
23:12 46.2 °F 40.1 °F 29.6 in WNW 23.0 mph 23.0 mph 79 % 0 in open2300-1.11 W/m2
Observations météo à CASSIS
WU-History script by Weather Underground - 1 mb